sensor_id;sensor_type;location;lat;lon;timestamp;P1;durP1;ratioP1;P2;durP2;ratioP2
18104;SDS011;9179;50.968;3.134;2023-07-31T00:01:25;11.13;;;5.60;;
18104;SDS011;9179;50.968;3.134;2023-07-31T00:03:52;12.30;;;5.82;;
18104;SDS011;9179;50.968;3.134;2023-07-31T00:06:19;9.70;;;6.15;;
18104;SDS011;9179;50.968;3.134;2023-07-31T00:08:46;8.88;;;6.30;;
18104;SDS011;9179;50.968;3.134;2023-07-31T00:11:13;10.77;;;5.93;;
18104;SDS011;9179;50.968;3.134;2023-07-31T00:13:39;14.15;;;5.88;;
18104;SDS011;9179;50.968;3.134;2023-07-31T00:16:08;11.20;;;5.93;;
18104;SDS011;9179;50.968;3.134;2023-07-31T00:18:34;11.10;;;6.13;;
18104;SDS011;9179;50.968;3.134;2023-07-31T00:21:01;11.65;;;6.20;;
18104;SDS011;9179;50.968;3.134;2023-07-31T00:23:28;16.88;;;6.75;;
18104;SDS011;9179;50.968;3.134;2023-07-31T00:25:55;10.15;;;5.97;;
18104;SDS011;9179;50.968;3.134;2023-07-31T00:28:22;12.15;;;6.15;;
18104;SDS011;9179;50.968;3.134;2023-07-31T00:30:49;10.50;;;5.80;;
18104;SDS011;9179;50.968;3.134;2023-07-31T00:33:17;14.00;;;6.45;;
18104;SDS011;9179;50.968;3.134;2023-07-31T00:35:44;11.25;;;6.32;;
18104;SDS011;9179;50.968;3.134;2023-07-31T00:38:11;10.07;;;5.95;;
18104;SDS011;9179;50.968;3.134;2023-07-31T00:40:38;10.15;;;5.75;;
18104;SDS011;9179;50.968;3.134;2023-07-31T00:43:05;11.60;;;4.95;;
18104;SDS011;9179;50.968;3.134;2023-07-31T00:45:31;8.70;;;5.95;;
18104;SDS011;9179;50.968;3.134;2023-07-31T00:47:59;9.93;;;5.40;;
18104;SDS011;9179;50.968;3.134;2023-07-31T00:50:27;11.90;;;6.53;;
18104;SDS011;9179;50.968;3.134;2023-07-31T00:52:54;8.85;;;5.28;;
18104;SDS011;9179;50.968;3.134;2023-07-31T00:55:21;9.90;;;6.07;;
18104;SDS011;9179;50.968;3.134;2023-07-31T00:57:49;12.27;;;6.70;;
18104;SDS011;9179;50.968;3.134;2023-07-31T01:00:17;13.00;;;5.75;;
18104;SDS011;9179;50.968;3.134;2023-07-31T01:02:45;10.55;;;5.15;;
18104;SDS011;9179;50.968;3.134;2023-07-31T01:05:12;11.30;;;6.03;;
18104;SDS011;9179;50.968;3.134;2023-07-31T01:07:42;9.43;;;5.18;;
18104;SDS011;9179;50.968;3.134;2023-07-31T01:10:15;9.20;;;4.85;;
18104;SDS011;9179;50.968;3.134;2023-07-31T01:12:46;9.25;;;5.38;;
18104;SDS011;9179;50.968;3.134;2023-07-31T01:15:15;9.93;;;5.38;;
18104;SDS011;9179;50.968;3.134;2023-07-31T01:17:43;12.30;;;5.28;;
18104;SDS011;9179;50.968;3.134;2023-07-31T01:20:11;10.20;;;5.85;;
18104;SDS011;9179;50.968;3.134;2023-07-31T01:25:53;13.40;;;5.53;;
18104;SDS011;9179;50.968;3.134;2023-07-31T01:28:25;9.48;;;5.18;;
18104;SDS011;9179;50.968;3.134;2023-07-31T01:30:59;12.25;;;5.00;;
18104;SDS011;9179;50.968;3.134;2023-07-31T01:33:28;11.95;;;5.22;;
18104;SDS011;9179;50.968;3.134;2023-07-31T01:35:55;11.85;;;4.95;;
18104;SDS011;9179;50.968;3.134;2023-07-31T01:38:22;8.38;;;4.75;;
18104;SDS011;9179;50.968;3.134;2023-07-31T01:40:50;8.90;;;4.68;;
18104;SDS011;9179;50.968;3.134;2023-07-31T01:43:19;9.98;;;5.05;;
18104;SDS011;9179;50.968;3.134;2023-07-31T01:45:46;7.05;;;4.50;;
18104;SDS011;9179;50.968;3.134;2023-07-31T01:48:13;9.10;;;4.95;;
18104;SDS011;9179;50.968;3.134;2023-07-31T01:50:40;13.90;;;5.55;;
18104;SDS011;9179;50.968;3.134;2023-07-31T01:53:07;7.50;;;4.30;;
18104;SDS011;9179;50.968;3.134;2023-07-31T01:55:34;9.38;;;4.63;;
18104;SDS011;9179;50.968;3.134;2023-07-31T01:58:01;7.28;;;4.55;;
18104;SDS011;9179;50.968;3.134;2023-07-31T02:00:29;7.93;;;4.57;;
18104;SDS011;9179;50.968;3.134;2023-07-31T02:02:56;7.53;;;4.57;;
18104;SDS011;9179;50.968;3.134;2023-07-31T02:05:23;7.82;;;4.97;;
18104;SDS011;9179;50.968;3.134;2023-07-31T02:07:49;10.73;;;4.70;;
18104;SDS011;9179;50.968;3.134;2023-07-31T02:10:16;10.63;;;5.47;;
18104;SDS011;9179;50.968;3.134;2023-07-31T02:12:43;10.98;;;4.47;;
18104;SDS011;9179;50.968;3.134;2023-07-31T02:15:10;10.25;;;4.82;;
18104;SDS011;9179;50.968;3.134;2023-07-31T02:17:38;9.82;;;4.68;;
18104;SDS011;9179;50.968;3.134;2023-07-31T02:20:06;10.60;;;4.30;;
18104;SDS011;9179;50.968;3.134;2023-07-31T02:22:33;8.18;;;4.60;;
18104;SDS011;9179;50.968;3.134;2023-07-31T02:25:00;6.35;;;4.80;;
18104;SDS011;9179;50.968;3.134;2023-07-31T02:27:27;8.57;;;4.50;;
18104;SDS011;9179;50.968;3.134;2023-07-31T02:29:54;7.28;;;4.93;;
18104;SDS011;9179;50.968;3.134;2023-07-31T02:32:21;9.95;;;4.88;;
18104;SDS011;9179;50.968;3.134;2023-07-31T02:34:49;9.48;;;4.07;;
18104;SDS011;9179;50.968;3.134;2023-07-31T02:37:16;11.13;;;5.32;;
18104;SDS011;9179;50.968;3.134;2023-07-31T02:39:43;9.10;;;4.68;;
18104;SDS011;9179;50.968;3.134;2023-07-31T02:42:10;9.15;;;4.70;;
18104;SDS011;9179;50.968;3.134;2023-07-31T02:44:37;7.53;;;4.97;;
18104;SDS011;9179;50.968;3.134;2023-07-31T02:47:04;6.80;;;4.80;;
18104;SDS011;9179;50.968;3.134;2023-07-31T02:49:31;9.15;;;4.30;;
18104;SDS011;9179;50.968;3.134;2023-07-31T02:51:59;6.60;;;4.05;;
18104;SDS011;9179;50.968;3.134;2023-07-31T02:54:26;12.13;;;6.45;;
18104;SDS011;9179;50.968;3.134;2023-07-31T02:56:53;9.35;;;4.70;;
18104;SDS011;9179;50.968;3.134;2023-07-31T02:59:19;9.05;;;4.63;;
18104;SDS011;9179;50.968;3.134;2023-07-31T03:01:46;8.15;;;4.82;;
18104;SDS011;9179;50.968;3.134;2023-07-31T03:04:13;7.00;;;4.03;;
18104;SDS011;9179;50.968;3.134;2023-07-31T03:06:40;8.30;;;4.78;;
18104;SDS011;9179;50.968;3.134;2023-07-31T03:09:08;11.07;;;4.78;;
18104;SDS011;9179;50.968;3.134;2023-07-31T03:11:35;13.30;;;5.07;;
18104;SDS011;9179;50.968;3.134;2023-07-31T03:14:02;8.82;;;5.75;;
18104;SDS011;9179;50.968;3.134;2023-07-31T03:16:29;7.25;;;4.28;;
18104;SDS011;9179;50.968;3.134;2023-07-31T03:18:56;6.22;;;4.30;;
18104;SDS011;9179;50.968;3.134;2023-07-31T03:21:23;8.23;;;4.22;;
18104;SDS011;9179;50.968;3.134;2023-07-31T03:23:50;11.23;;;4.53;;
18104;SDS011;9179;50.968;3.134;2023-07-31T03:26:18;14.40;;;5.20;;
18104;SDS011;9179;50.968;3.134;2023-07-31T03:28:45;8.73;;;4.85;;
18104;SDS011;9179;50.968;3.134;2023-07-31T03:31:12;6.28;;;4.47;;
18104;SDS011;9179;50.968;3.134;2023-07-31T03:33:39;7.28;;;4.70;;
18104;SDS011;9179;50.968;3.134;2023-07-31T03:36:06;9.52;;;4.95;;
18104;SDS011;9179;50.968;3.134;2023-07-31T03:38:33;6.60;;;4.20;;
18104;SDS011;9179;50.968;3.134;2023-07-31T03:41:00;8.13;;;5.10;;
18104;SDS011;9179;50.968;3.134;2023-07-31T03:43:28;8.65;;;4.60;;
18104;SDS011;9179;50.968;3.134;2023-07-31T03:45:55;10.15;;;4.53;;
18104;SDS011;9179;50.968;3.134;2023-07-31T03:48:22;9.70;;;5.45;;
18104;SDS011;9179;50.968;3.134;2023-07-31T03:50:49;6.75;;;4.22;;
18104;SDS011;9179;50.968;3.134;2023-07-31T03:53:16;7.03;;;4.50;;
18104;SDS011;9179;50.968;3.134;2023-07-31T03:55:43;7.28;;;4.18;;
18104;SDS011;9179;50.968;3.134;2023-07-31T03:58:10;7.32;;;3.83;;
18104;SDS011;9179;50.968;3.134;2023-07-31T04:00:39;5.63;;;4.03;;
18104;SDS011;9179;50.968;3.134;2023-07-31T04:03:06;5.53;;;4.40;;
18104;SDS011;9179;50.968;3.134;2023-07-31T04:05:33;4.85;;;3.45;;
18104;SDS011;9179;50.968;3.134;2023-07-31T04:08:04;6.25;;;4.20;;
18104;SDS011;9179;50.968;3.134;2023-07-31T04:10:31;5.22;;;3.63;;
18104;SDS011;9179;50.968;3.134;2023-07-31T04:12:58;7.85;;;4.22;;
18104;SDS011;9179;50.968;3.134;2023-07-31T04:15:25;9.82;;;3.83;;
18104;SDS011;9179;50.968;3.134;2023-07-31T04:17:53;6.95;;;3.92;;
18104;SDS011;9179;50.968;3.134;2023-07-31T04:20:20;6.35;;;3.67;;
18104;SDS011;9179;50.968;3.134;2023-07-31T04:22:47;5.43;;;3.70;;
18104;SDS011;9179;50.968;3.134;2023-07-31T04:25:14;5.97;;;3.97;;
18104;SDS011;9179;50.968;3.134;2023-07-31T04:27:41;8.50;;;4.30;;
18104;SDS011;9179;50.968;3.134;2023-07-31T04:30:08;5.28;;;3.90;;
18104;SDS011;9179;50.968;3.134;2023-07-31T04:32:35;5.15;;;4.10;;
18104;SDS011;9179;50.968;3.134;2023-07-31T04:35:04;7.57;;;3.70;;
18104;SDS011;9179;50.968;3.134;2023-07-31T04:37:31;7.18;;;3.72;;
18104;SDS011;9179;50.968;3.134;2023-07-31T04:39:58;4.35;;;3.95;;
18104;SDS011;9179;50.968;3.134;2023-07-31T04:42:25;6.38;;;3.17;;
18104;SDS011;9179;50.968;3.134;2023-07-31T04:44:52;5.78;;;3.22;;
18104;SDS011;9179;50.968;3.134;2023-07-31T04:47:19;3.92;;;2.90;;
18104;SDS011;9179;50.968;3.134;2023-07-31T04:49:46;5.18;;;3.90;;
18104;SDS011;9179;50.968;3.134;2023-07-31T04:52:14;5.50;;;2.88;;
18104;SDS011;9179;50.968;3.134;2023-07-31T04:54:41;5.72;;;3.65;;
18104;SDS011;9179;50.968;3.134;2023-07-31T04:57:09;4.95;;;3.50;;
18104;SDS011;9179;50.968;3.134;2023-07-31T04:59:36;3.30;;;2.85;;
18104;SDS011;9179;50.968;3.134;2023-07-31T05:02:03;4.47;;;3.13;;
18104;SDS011;9179;50.968;3.134;2023-07-31T05:04:30;5.25;;;3.20;;
18104;SDS011;9179;50.968;3.134;2023-07-31T05:06:57;4.22;;;3.30;;
18104;SDS011;9179;50.968;3.134;2023-07-31T05:09:25;5.68;;;3.72;;
18104;SDS011;9179;50.968;3.134;2023-07-31T05:11:52;8.32;;;4.05;;
18104;SDS011;9179;50.968;3.134;2023-07-31T05:14:19;4.97;;;3.40;;
18104;SDS011;9179;50.968;3.134;2023-07-31T05:16:46;5.85;;;4.05;;
18104;SDS011;9179;50.968;3.134;2023-07-31T05:19:13;6.25;;;3.22;;
18104;SDS011;9179;50.968;3.134;2023-07-31T05:21:40;4.65;;;3.10;;
18104;SDS011;9179;50.968;3.134;2023-07-31T05:24:06;3.90;;;3.33;;
18104;SDS011;9179;50.968;3.134;2023-07-31T05:26:35;6.55;;;4.28;;
18104;SDS011;9179;50.968;3.134;2023-07-31T05:29:02;5.43;;;3.45;;
18104;SDS011;9179;50.968;3.134;2023-07-31T05:31:29;4.47;;;3.97;;
18104;SDS011;9179;50.968;3.134;2023-07-31T05:33:57;4.60;;;3.97;;
18104;SDS011;9179;50.968;3.134;2023-07-31T05:36:24;10.73;;;4.38;;
18104;SDS011;9179;50.968;3.134;2023-07-31T05:38:51;7.03;;;4.00;;
18104;SDS011;9179;50.968;3.134;2023-07-31T05:41:18;7.93;;;5.40;;
18104;SDS011;9179;50.968;3.134;2023-07-31T05:43:46;7.88;;;4.10;;
18104;SDS011;9179;50.968;3.134;2023-07-31T05:46:13;4.78;;;4.10;;
18104;SDS011;9179;50.968;3.134;2023-07-31T05:48:39;5.78;;;3.92;;
18104;SDS011;9179;50.968;3.134;2023-07-31T05:51:06;8.77;;;4.00;;
18104;SDS011;9179;50.968;3.134;2023-07-31T05:53:33;8.80;;;4.30;;
18104;SDS011;9179;50.968;3.134;2023-07-31T05:56:03;11.57;;;5.03;;
18104;SDS011;9179;50.968;3.134;2023-07-31T05:58:30;5.55;;;3.72;;
18104;SDS011;9179;50.968;3.134;2023-07-31T06:00:58;3.58;;;3.28;;
18104;SDS011;9179;50.968;3.134;2023-07-31T06:03:25;4.15;;;3.75;;
18104;SDS011;9179;50.968;3.134;2023-07-31T06:05:52;4.45;;;3.67;;
18104;SDS011;9179;50.968;3.134;2023-07-31T06:08:19;7.03;;;4.05;;
18104;SDS011;9179;50.968;3.134;2023-07-31T06:10:46;6.28;;;3.13;;
18104;SDS011;9179;50.968;3.134;2023-07-31T06:13:13;4.47;;;3.42;;
18104;SDS011;9179;50.968;3.134;2023-07-31T06:15:40;7.07;;;3.42;;
18104;SDS011;9179;50.968;3.134;2023-07-31T06:18:08;3.63;;;3.05;;
18104;SDS011;9179;50.968;3.134;2023-07-31T06:20:35;3.63;;;3.00;;
18104;SDS011;9179;50.968;3.134;2023-07-31T06:23:02;6.40;;;3.65;;
18104;SDS011;9179;50.968;3.134;2023-07-31T06:25:29;4.32;;;2.92;;
18104;SDS011;9179;50.968;3.134;2023-07-31T06:27:56;6.82;;;3.22;;
18104;SDS011;9179;50.968;3.134;2023-07-31T06:30:23;5.32;;;3.45;;
18104;SDS011;9179;50.968;3.134;2023-07-31T06:32:50;5.03;;;3.72;;
18104;SDS011;9179;50.968;3.134;2023-07-31T06:35:18;8.18;;;3.42;;
18104;SDS011;9179;50.968;3.134;2023-07-31T06:37:45;4.53;;;3.50;;
18104;SDS011;9179;50.968;3.134;2023-07-31T06:40:12;4.22;;;3.83;;
18104;SDS011;9179;50.968;3.134;2023-07-31T06:42:39;4.75;;;2.97;;
18104;SDS011;9179;50.968;3.134;2023-07-31T06:45:06;3.20;;;2.90;;
18104;SDS011;9179;50.968;3.134;2023-07-31T06:47:34;2.70;;;2.40;;
18104;SDS011;9179;50.968;3.134;2023-07-31T06:50:01;3.83;;;2.67;;
18104;SDS011;9179;50.968;3.134;2023-07-31T06:52:29;4.80;;;3.03;;
18104;SDS011;9179;50.968;3.134;2023-07-31T06:55:02;4.70;;;3.15;;
18104;SDS011;9179;50.968;3.134;2023-07-31T06:57:30;6.35;;;2.90;;
18104;SDS011;9179;50.968;3.134;2023-07-31T06:59:57;3.08;;;2.45;;
18104;SDS011;9179;50.968;3.134;2023-07-31T07:02:23;3.63;;;2.70;;
18104;SDS011;9179;50.968;3.134;2023-07-31T07:04:50;3.08;;;2.70;;
18104;SDS011;9179;50.968;3.134;2023-07-31T07:07:17;3.55;;;3.03;;
18104;SDS011;9179;50.968;3.134;2023-07-31T07:09:46;2.65;;;2.40;;
18104;SDS011;9179;50.968;3.134;2023-07-31T07:12:13;5.80;;;2.70;;
18104;SDS011;9179;50.968;3.134;2023-07-31T07:14:39;4.68;;;2.70;;
18104;SDS011;9179;50.968;3.134;2023-07-31T07:17:06;2.78;;;2.42;;
18104;SDS011;9179;50.968;3.134;2023-07-31T07:19:33;3.33;;;3.03;;
18104;SDS011;9179;50.968;3.134;2023-07-31T07:22:00;4.07;;;2.78;;
18104;SDS011;9179;50.968;3.134;2023-07-31T07:24:27;2.88;;;2.65;;
18104;SDS011;9179;50.968;3.134;2023-07-31T07:26:55;3.47;;;2.60;;
18104;SDS011;9179;50.968;3.134;2023-07-31T07:29:22;2.78;;;2.53;;
18104;SDS011;9179;50.968;3.134;2023-07-31T07:31:49;3.88;;;2.70;;
18104;SDS011;9179;50.968;3.134;2023-07-31T07:34:16;3.70;;;2.60;;
18104;SDS011;9179;50.968;3.134;2023-07-31T07:36:43;2.90;;;2.35;;
18104;SDS011;9179;50.968;3.134;2023-07-31T07:39:10;4.63;;;2.53;;
18104;SDS011;9179;50.968;3.134;2023-07-31T07:41:37;2.75;;;2.00;;
18104;SDS011;9179;50.968;3.134;2023-07-31T07:44:05;3.13;;;2.25;;
18104;SDS011;9179;50.968;3.134;2023-07-31T07:46:32;3.47;;;2.13;;
18104;SDS011;9179;50.968;3.134;2023-07-31T07:48:59;2.85;;;2.35;;
18104;SDS011;9179;50.968;3.134;2023-07-31T07:51:26;2.22;;;2.03;;
18104;SDS011;9179;50.968;3.134;2023-07-31T07:53:55;4.07;;;2.00;;
18104;SDS011;9179;50.968;3.134;2023-07-31T07:56:22;2.28;;;2.17;;
18104;SDS011;9179;50.968;3.134;2023-07-31T07:58:49;3.80;;;2.22;;
18104;SDS011;9179;50.968;3.134;2023-07-31T08:01:17;2.10;;;1.73;;
18104;SDS011;9179;50.968;3.134;2023-07-31T08:03:44;2.17;;;1.98;;
18104;SDS011;9179;50.968;3.134;2023-07-31T08:06:11;2.33;;;2.13;;
18104;SDS011;9179;50.968;3.134;2023-07-31T08:08:39;2.00;;;1.90;;
18104;SDS011;9179;50.968;3.134;2023-07-31T08:11:05;2.00;;;1.88;;
18104;SDS011;9179;50.968;3.134;2023-07-31T08:13:32;2.33;;;2.10;;
18104;SDS011;9179;50.968;3.134;2023-07-31T08:16:01;3.03;;;1.90;;
18104;SDS011;9179;50.968;3.134;2023-07-31T08:18:30;2.92;;;2.33;;
18104;SDS011;9179;50.968;3.134;2023-07-31T08:20:57;2.10;;;1.90;;
18104;SDS011;9179;50.968;3.134;2023-07-31T08:23:24;2.25;;;2.05;;
18104;SDS011;9179;50.968;3.134;2023-07-31T08:25:51;2.78;;;2.58;;
18104;SDS011;9179;50.968;3.134;2023-07-31T08:28:18;2.30;;;2.17;;
18104;SDS011;9179;50.968;3.134;2023-07-31T08:30:45;2.45;;;2.25;;
18104;SDS011;9179;50.968;3.134;2023-07-31T08:33:12;3.20;;;2.95;;
18104;SDS011;9179;50.968;3.134;2023-07-31T08:35:40;2.97;;;2.78;;
18104;SDS011;9179;50.968;3.134;2023-07-31T08:38:07;2.80;;;2.60;;
18104;SDS011;9179;50.968;3.134;2023-07-31T08:40:35;3.10;;;2.80;;
18104;SDS011;9179;50.968;3.134;2023-07-31T08:43:03;2.72;;;2.53;;
18104;SDS011;9179;50.968;3.134;2023-07-31T08:45:30;4.60;;;2.92;;
18104;SDS011;9179;50.968;3.134;2023-07-31T08:47:58;2.88;;;2.67;;
18104;SDS011;9179;50.968;3.134;2023-07-31T08:50:25;3.67;;;2.70;;
18104;SDS011;9179;50.968;3.134;2023-07-31T08:52:54;3.03;;;2.83;;
18104;SDS011;9179;50.968;3.134;2023-07-31T08:55:21;2.67;;;2.47;;
18104;SDS011;9179;50.968;3.134;2023-07-31T08:57:50;4.75;;;3.45;;
18104;SDS011;9179;50.968;3.134;2023-07-31T09:00:19;2.65;;;2.45;;
18104;SDS011;9179;50.968;3.134;2023-07-31T09:02:51;4.32;;;2.95;;
18104;SDS011;9179;50.968;3.134;2023-07-31T09:05:23;3.67;;;2.95;;
18104;SDS011;9179;50.968;3.134;2023-07-31T09:07:54;2.92;;;2.70;;
18104;SDS011;9179;50.968;3.134;2023-07-31T09:10:23;3.78;;;3.28;;
18104;SDS011;9179;50.968;3.134;2023-07-31T09:12:51;3.70;;;3.35;;
18104;SDS011;9179;50.968;3.134;2023-07-31T09:15:18;3.45;;;3.05;;
18104;SDS011;9179;50.968;3.134;2023-07-31T09:17:46;4.88;;;3.33;;
18104;SDS011;9179;50.968;3.134;2023-07-31T09:20:13;3.63;;;3.33;;
18104;SDS011;9179;50.968;3.134;2023-07-31T09:22:41;5.45;;;3.92;;
18104;SDS011;9179;50.968;3.134;2023-07-31T09:25:17;3.72;;;3.42;;
18104;SDS011;9179;50.968;3.134;2023-07-31T09:27:51;3.55;;;3.20;;
18104;SDS011;9179;50.968;3.134;2023-07-31T09:30:19;3.80;;;3.50;;
18104;SDS011;9179;50.968;3.134;2023-07-31T09:32:47;3.67;;;3.38;;
18104;SDS011;9179;50.968;3.134;2023-07-31T09:35:18;4.35;;;3.58;;
18104;SDS011;9179;50.968;3.134;2023-07-31T09:37:50;4.53;;;3.92;;
18104;SDS011;9179;50.968;3.134;2023-07-31T09:40:31;5.18;;;4.00;;
18104;SDS011;9179;50.968;3.134;2023-07-31T09:43:00;3.08;;;2.80;;
18104;SDS011;9179;50.968;3.134;2023-07-31T09:45:28;3.55;;;3.25;;
18104;SDS011;9179;50.968;3.134;2023-07-31T09:47:56;4.22;;;3.83;;
18104;SDS011;9179;50.968;3.134;2023-07-31T09:50:24;4.22;;;3.83;;
18104;SDS011;9179;50.968;3.134;2023-07-31T09:52:51;5.07;;;3.08;;
18104;SDS011;9179;50.968;3.134;2023-07-31T09:55:18;3.60;;;3.30;;
18104;SDS011;9179;50.968;3.134;2023-07-31T09:57:47;4.05;;;3.58;;
18104;SDS011;9179;50.968;3.134;2023-07-31T10:00:16;4.85;;;4.20;;
18104;SDS011;9179;50.968;3.134;2023-07-31T10:02:44;4.20;;;3.60;;
18104;SDS011;9179;50.968;3.134;2023-07-31T10:05:13;5.57;;;4.88;;
18104;SDS011;9179;50.968;3.134;2023-07-31T10:07:42;4.88;;;4.28;;
18104;SDS011;9179;50.968;3.134;2023-07-31T10:10:09;5.05;;;3.72;;
18104;SDS011;9179;50.968;3.134;2023-07-31T10:12:37;6.15;;;3.95;;
18104;SDS011;9179;50.968;3.134;2023-07-31T10:15:07;6.32;;;4.13;;
18104;SDS011;9179;50.968;3.134;2023-07-31T10:17:35;4.75;;;4.13;;
18104;SDS011;9179;50.968;3.134;2023-07-31T10:20:03;4.40;;;4.00;;
18104;SDS011;9179;50.968;3.134;2023-07-31T10:22:31;4.13;;;3.45;;
18104;SDS011;9179;50.968;3.134;2023-07-31T10:24:58;4.65;;;3.60;;
18104;SDS011;9179;50.968;3.134;2023-07-31T10:27:26;4.53;;;3.50;;
18104;SDS011;9179;50.968;3.134;2023-07-31T10:29:54;3.28;;;2.97;;
18104;SDS011;9179;50.968;3.134;2023-07-31T10:32:23;4.43;;;3.22;;
18104;SDS011;9179;50.968;3.134;2023-07-31T10:34:52;3.65;;;3.30;;
18104;SDS011;9179;50.968;3.134;2023-07-31T10:37:20;3.83;;;2.85;;
18104;SDS011;9179;50.968;3.134;2023-07-31T10:39:55;4.78;;;3.22;;
18104;SDS011;9179;50.968;3.134;2023-07-31T10:42:27;5.65;;;3.70;;
18104;SDS011;9179;50.968;3.134;2023-07-31T10:44:57;5.30;;;3.92;;
18104;SDS011;9179;50.968;3.134;2023-07-31T10:47:26;3.40;;;2.60;;
18104;SDS011;9179;50.968;3.134;2023-07-31T10:49:53;3.38;;;2.97;;
18104;SDS011;9179;50.968;3.134;2023-07-31T10:52:38;5.68;;;3.08;;
18104;SDS011;9179;50.968;3.134;2023-07-31T10:57:54;5.40;;;3.33;;
18104;SDS011;9179;50.968;3.134;2023-07-31T11:00:24;3.50;;;3.05;;
18104;SDS011;9179;50.968;3.134;2023-07-31T11:03:01;3.72;;;3.08;;
18104;SDS011;9179;50.968;3.134;2023-07-31T11:05:42;3.35;;;2.35;;
18104;SDS011;9179;50.968;3.134;2023-07-31T11:08:14;3.88;;;3.08;;
18104;SDS011;9179;50.968;3.134;2023-07-31T11:10:43;2.97;;;2.78;;
18104;SDS011;9179;50.968;3.134;2023-07-31T11:13:11;3.00;;;2.55;;
18104;SDS011;9179;50.968;3.134;2023-07-31T11:15:38;3.38;;;2.70;;
18104;SDS011;9179;50.968;3.134;2023-07-31T11:18:06;5.78;;;3.35;;
18104;SDS011;9179;50.968;3.134;2023-07-31T11:20:35;3.45;;;2.83;;
18104;SDS011;9179;50.968;3.134;2023-07-31T11:23:05;4.20;;;2.95;;
18104;SDS011;9179;50.968;3.134;2023-07-31T11:25:33;4.10;;;3.35;;
18104;SDS011;9179;50.968;3.134;2023-07-31T11:28:02;3.80;;;2.83;;
18104;SDS011;9179;50.968;3.134;2023-07-31T11:30:30;3.17;;;2.88;;
18104;SDS011;9179;50.968;3.134;2023-07-31T11:32:57;4.15;;;2.72;;
18104;SDS011;9179;50.968;3.134;2023-07-31T11:35:26;3.20;;;2.95;;
18104;SDS011;9179;50.968;3.134;2023-07-31T11:37:52;3.63;;;3.00;;
18104;SDS011;9179;50.968;3.134;2023-07-31T11:40:19;5.95;;;3.35;;
18104;SDS011;9179;50.968;3.134;2023-07-31T11:42:46;4.05;;;3.03;;
18104;SDS011;9179;50.968;3.134;2023-07-31T11:45:13;3.53;;;3.22;;
18104;SDS011;9179;50.968;3.134;2023-07-31T11:47:40;3.03;;;2.83;;
18104;SDS011;9179;50.968;3.134;2023-07-31T11:50:10;4.97;;;3.13;;
18104;SDS011;9179;50.968;3.134;2023-07-31T11:52:40;4.38;;;2.80;;
18104;SDS011;9179;50.968;3.134;2023-07-31T11:55:09;4.43;;;2.85;;
18104;SDS011;9179;50.968;3.134;2023-07-31T11:57:37;3.78;;;2.40;;
18104;SDS011;9179;50.968;3.134;2023-07-31T12:00:06;2.08;;;1.83;;
18104;SDS011;9179;50.968;3.134;2023-07-31T12:02:36;2.63;;;2.30;;
18104;SDS011;9179;50.968;3.134;2023-07-31T12:05:04;4.25;;;2.80;;
18104;SDS011;9179;50.968;3.134;2023-07-31T12:10:23;2.30;;;2.10;;
18104;SDS011;9179;50.968;3.134;2023-07-31T12:12:58;2.58;;;2.38;;
18104;SDS011;9179;50.968;3.134;2023-07-31T12:15:31;3.53;;;2.53;;
18104;SDS011;9179;50.968;3.134;2023-07-31T12:18:04;2.72;;;2.53;;
18104;SDS011;9179;50.968;3.134;2023-07-31T12:20:31;2.90;;;2.65;;
18104;SDS011;9179;50.968;3.134;2023-07-31T12:23:00;3.28;;;2.45;;
18104;SDS011;9179;50.968;3.134;2023-07-31T12:25:31;3.33;;;3.03;;
18104;SDS011;9179;50.968;3.134;2023-07-31T12:28:03;3.55;;;3.33;;
18104;SDS011;9179;50.968;3.134;2023-07-31T12:30:32;3.55;;;2.95;;
18104;SDS011;9179;50.968;3.134;2023-07-31T12:33:02;3.58;;;3.03;;
18104;SDS011;9179;50.968;3.134;2023-07-31T12:35:34;4.32;;;3.92;;
18104;SDS011;9179;50.968;3.134;2023-07-31T12:38:03;3.45;;;3.15;;
18104;SDS011;9179;50.968;3.134;2023-07-31T12:40:30;3.50;;;3.20;;
18104;SDS011;9179;50.968;3.134;2023-07-31T12:42:57;5.70;;;2.88;;
18104;SDS011;9179;50.968;3.134;2023-07-31T12:45:26;2.70;;;2.50;;
18104;SDS011;9179;50.968;3.134;2023-07-31T12:47:53;3.40;;;3.10;;
18104;SDS011;9179;50.968;3.134;2023-07-31T12:50:20;3.25;;;3.05;;
18104;SDS011;9179;50.968;3.134;2023-07-31T12:52:48;3.38;;;3.08;;
18104;SDS011;9179;50.968;3.134;2023-07-31T12:55:16;3.88;;;3.58;;
18104;SDS011;9179;50.968;3.134;2023-07-31T12:57:44;3.50;;;3.20;;
18104;SDS011;9179;50.968;3.134;2023-07-31T13:00:11;3.97;;;3.58;;
18104;SDS011;9179;50.968;3.134;2023-07-31T13:02:39;3.38;;;3.13;;
18104;SDS011;9179;50.968;3.134;2023-07-31T13:05:06;2.38;;;2.28;;
18104;SDS011;9179;50.968;3.134;2023-07-31T13:07:34;2.88;;;2.30;;
18104;SDS011;9179;50.968;3.134;2023-07-31T13:10:00;3.10;;;2.90;;
18104;SDS011;9179;50.968;3.134;2023-07-31T13:12:29;2.47;;;2.28;;
18104;SDS011;9179;50.968;3.134;2023-07-31T13:14:56;3.10;;;2.83;;
18104;SDS011;9179;50.968;3.134;2023-07-31T13:17:22;2.63;;;2.42;;
18104;SDS011;9179;50.968;3.134;2023-07-31T13:19:49;2.90;;;2.50;;
18104;SDS011;9179;50.968;3.134;2023-07-31T13:22:16;3.70;;;2.45;;
18104;SDS011;9179;50.968;3.134;2023-07-31T13:24:43;1.85;;;1.75;;
18104;SDS011;9179;50.968;3.134;2023-07-31T13:27:10;2.03;;;1.90;;
18104;SDS011;9179;50.968;3.134;2023-07-31T13:29:38;1.88;;;1.73;;
18104;SDS011;9179;50.968;3.134;2023-07-31T13:32:05;2.35;;;2.17;;
18104;SDS011;9179;50.968;3.134;2023-07-31T13:34:32;2.20;;;2.00;;
18104;SDS011;9179;50.968;3.134;2023-07-31T13:36:59;1.88;;;1.77;;
18104;SDS011;9179;50.968;3.134;2023-07-31T13:39:26;2.33;;;2.00;;
18104;SDS011;9179;50.968;3.134;2023-07-31T13:41:53;2.40;;;1.88;;
18104;SDS011;9179;50.968;3.134;2023-07-31T13:44:20;2.63;;;1.83;;
18104;SDS011;9179;50.968;3.134;2023-07-31T13:46:48;1.65;;;1.55;;
18104;SDS011;9179;50.968;3.134;2023-07-31T13:49:15;1.40;;;1.30;;
18104;SDS011;9179;50.968;3.134;2023-07-31T13:51:42;1.42;;;1.33;;
18104;SDS011;9179;50.968;3.134;2023-07-31T13:54:09;2.15;;;1.40;;
18104;SDS011;9179;50.968;3.134;2023-07-31T13:56:38;1.08;;;1.02;;
18104;SDS011;9179;50.968;3.134;2023-07-31T13:59:05;3.03;;;1.35;;
18104;SDS011;9179;50.968;3.134;2023-07-31T14:01:32;1.30;;;1.20;;
18104;SDS011;9179;50.968;3.134;2023-07-31T14:04:00;1.48;;;1.20;;
18104;SDS011;9179;50.968;3.134;2023-07-31T14:06:27;2.72;;;1.17;;
18104;SDS011;9179;50.968;3.134;2023-07-31T14:08:54;0.90;;;0.90;;
18104;SDS011;9179;50.968;3.134;2023-07-31T14:11:21;1.08;;;1.08;;
18104;SDS011;9179;50.968;3.134;2023-07-31T14:13:49;1.08;;;1.08;;
18104;SDS011;9179;50.968;3.134;2023-07-31T14:16:16;1.50;;;1.40;;
18104;SDS011;9179;50.968;3.134;2023-07-31T14:18:43;1.80;;;1.70;;
18104;SDS011;9179;50.968;3.134;2023-07-31T14:21:13;1.30;;;1.25;;
18104;SDS011;9179;50.968;3.134;2023-07-31T14:23:55;0.73;;;0.73;;
18104;SDS011;9179;50.968;3.134;2023-07-31T14:26:24;1.55;;;1.10;;
18104;SDS011;9179;50.968;3.134;2023-07-31T14:28:57;1.55;;;1.00;;
18104;SDS011;9179;50.968;3.134;2023-07-31T14:31:42;1.75;;;0.77;;
18104;SDS011;9179;50.968;3.134;2023-07-31T14:34:09;1.30;;;1.20;;
18104;SDS011;9179;50.968;3.134;2023-07-31T14:36:40;0.90;;;0.90;;
18104;SDS011;9179;50.968;3.134;2023-07-31T14:42:20;0.70;;;0.70;;
18104;SDS011;9179;50.968;3.134;2023-07-31T14:44:53;0.70;;;0.70;;
18104;SDS011;9179;50.968;3.134;2023-07-31T14:47:55;0.98;;;0.98;;
18104;SDS011;9179;50.968;3.134;2023-07-31T14:50:32;0.85;;;0.85;;
18104;SDS011;9179;50.968;3.134;2023-07-31T14:53:47;0.63;;;0.63;;
18104;SDS011;9179;50.968;3.134;2023-07-31T14:56:46;0.85;;;0.85;;
18104;SDS011;9179;50.968;3.134;2023-07-31T14:59:13;0.77;;;0.77;;
18104;SDS011;9179;50.968;3.134;2023-07-31T15:01:41;0.90;;;0.90;;
18104;SDS011;9179;50.968;3.134;2023-07-31T15:04:07;0.70;;;0.70;;
18104;SDS011;9179;50.968;3.134;2023-07-31T15:06:34;0.60;;;0.60;;
18104;SDS011;9179;50.968;3.134;2023-07-31T15:09:03;0.90;;;0.90;;
18104;SDS011;9179;50.968;3.134;2023-07-31T15:11:29;0.70;;;0.70;;
18104;SDS011;9179;50.968;3.134;2023-07-31T15:13:56;0.75;;;0.73;;
18104;SDS011;9179;50.968;3.134;2023-07-31T15:16:23;1.20;;;1.00;;
18104;SDS011;9179;50.968;3.134;2023-07-31T15:18:51;0.77;;;0.77;;